createdAt,value
2022-11-23T00:02:13.337Z,9.10
2022-11-23T00:04:40.305Z,9.00
2022-11-23T00:07:07.148Z,9.10
2022-11-23T00:09:34.123Z,9.00
2022-11-23T00:12:01.108Z,9.00
2022-11-23T00:14:27.949Z,9.20
2022-11-23T00:16:54.686Z,9.00
2022-11-23T00:19:21.654Z,9.10
2022-11-23T00:21:48.556Z,9.00
2022-11-23T00:24:15.270Z,9.00
2022-11-23T00:26:42.123Z,8.90
2022-11-23T00:29:08.964Z,9.10
2022-11-23T00:31:35.968Z,8.80
2022-11-23T00:34:02.883Z,8.70
2022-11-23T00:36:29.774Z,8.70
2022-11-23T00:38:58.772Z,8.70
2022-11-23T00:41:27.321Z,8.70
2022-11-23T00:43:54.277Z,9.80
2022-11-23T00:46:26.134Z,9.10
2022-11-23T00:48:54.929Z,8.80
2022-11-23T00:51:28.523Z,8.60
2022-11-23T00:53:55.698Z,8.50
2022-11-23T00:56:22.577Z,8.50
2022-11-23T00:58:50.710Z,8.60
2022-11-23T01:01:19.748Z,8.60
2022-11-23T01:03:51.153Z,8.70
2022-11-23T01:06:20.770Z,8.60
2022-11-23T01:08:52.370Z,8.70
2022-11-23T01:11:20.588Z,9.70
2022-11-23T01:13:48.102Z,8.70
2022-11-23T01:16:23.583Z,8.70
2022-11-23T01:18:55.677Z,10.10
2022-11-23T01:21:23.432Z,8.60
2022-11-23T01:23:50.420Z,8.60
2022-11-23T01:26:17.155Z,8.60
2022-11-23T01:28:44.129Z,9.10
2022-11-23T01:31:14.047Z,8.50
2022-11-23T01:33:40.969Z,8.50
2022-11-23T01:36:11.578Z,9.10
2022-11-23T01:38:38.359Z,8.50
2022-11-23T01:41:06.855Z,8.50
2022-11-23T01:43:33.822Z,8.50
2022-11-23T01:46:01.894Z,8.50
2022-11-23T01:48:39.280Z,8.50
2022-11-23T01:51:11.098Z,8.60
2022-11-23T01:53:38.806Z,8.60
2022-11-23T01:56:08.307Z,8.50
2022-11-23T01:58:39.109Z,8.40
2022-11-23T02:01:07.292Z,8.50
2022-11-23T02:03:36.564Z,10.10
2022-11-23T02:06:07.600Z,8.40
2022-11-23T02:08:35.083Z,8.40
2022-11-23T02:11:02.185Z,8.30
2022-11-23T02:13:29.526Z,8.30
2022-11-23T02:15:57.966Z,8.40
2022-11-23T02:18:29.221Z,8.30
2022-11-23T02:20:57.711Z,8.30
2022-11-23T02:23:43.274Z,8.30
2022-11-23T02:26:17.752Z,8.30
2022-11-23T02:28:52.887Z,8.30
2022-11-23T02:31:19.658Z,8.20
2022-11-23T02:33:46.336Z,8.40
2022-11-23T02:36:43.230Z,8.20
2022-11-23T02:39:18.513Z,8.30
2022-11-23T02:41:51.476Z,8.30
2022-11-23T02:44:55.554Z,8.40
2022-11-23T02:47:22.400Z,8.30
2022-11-23T02:49:49.857Z,8.40
2022-11-23T02:52:17.745Z,8.50
2022-11-23T02:54:44.856Z,8.20
2022-11-23T02:57:11.604Z,8.30
2022-11-23T02:59:38.264Z,8.20
2022-11-23T03:02:05.917Z,8.30
2022-11-23T03:04:32.922Z,8.30
2022-11-23T03:06:59.611Z,8.30
2022-11-23T03:09:26.592Z,8.40
2022-11-23T03:11:53.878Z,8.40
2022-11-23T03:14:21.237Z,8.50
2022-11-23T03:16:47.967Z,8.50
2022-11-23T03:19:15.358Z,8.50
2022-11-23T03:21:42.070Z,8.50
2022-11-23T03:24:08.797Z,8.50
2022-11-23T03:26:37.906Z,8.50
2022-11-23T03:29:05.392Z,10.00
2022-11-23T03:31:32.126Z,8.50
2022-11-23T03:33:58.868Z,8.50
2022-11-23T03:36:25.774Z,8.50
2022-11-23T03:38:52.470Z,8.40
2022-11-23T03:41:19.212Z,8.40
2022-11-23T03:43:45.935Z,8.50
2022-11-23T03:46:12.813Z,8.20
2022-11-23T03:48:39.567Z,8.30
2022-11-23T03:51:06.462Z,8.20
2022-11-23T03:53:33.238Z,8.30
2022-11-23T03:56:00.311Z,8.30
2022-11-23T03:58:27.072Z,8.20
2022-11-23T04:00:55.114Z,8.30
2022-11-23T04:03:22.114Z,8.30
2022-11-23T04:05:49.189Z,8.40
2022-11-23T04:08:16.042Z,8.30
2022-11-23T04:10:42.704Z,8.30
2022-11-23T04:13:09.421Z,8.30
2022-11-23T04:15:36.203Z,8.40
2022-11-23T04:18:03.073Z,8.30
2022-11-23T04:20:29.949Z,8.30
2022-11-23T04:22:56.858Z,8.30
2022-11-23T04:25:23.731Z,8.30
2022-11-23T04:27:50.389Z,8.30
2022-11-23T04:30:17.251Z,8.30
2022-11-23T04:32:47.128Z,8.30
2022-11-23T04:35:13.908Z,8.30
2022-11-23T04:37:40.587Z,8.30
2022-11-23T04:40:08.143Z,8.50
2022-11-23T04:42:34.930Z,8.40
2022-11-23T04:45:01.676Z,8.40
2022-11-23T04:47:28.455Z,8.30
2022-11-23T04:49:55.128Z,8.40
2022-11-23T04:52:21.869Z,8.40
2022-11-23T04:54:48.722Z,8.40
2022-11-23T04:57:15.472Z,8.40
2022-11-23T04:59:42.210Z,8.40
2022-11-23T05:02:08.931Z,8.50
2022-11-23T05:04:36.030Z,8.50
2022-11-23T05:07:03.258Z,8.60
2022-11-23T05:09:30.221Z,8.60
2022-11-23T05:11:57.776Z,8.70
2022-11-23T05:14:24.632Z,8.70
2022-11-23T05:16:51.985Z,8.70
2022-11-23T05:19:18.706Z,8.60
2022-11-23T05:21:45.460Z,8.60
2022-11-23T05:24:12.409Z,8.60
2022-11-23T05:26:39.164Z,8.70
2022-11-23T05:29:05.940Z,8.70
2022-11-23T05:31:32.726Z,8.60
2022-11-23T05:33:59.529Z,8.60
2022-11-23T05:36:26.307Z,8.60
2022-11-23T05:38:53.099Z,8.60
2022-11-23T05:41:19.891Z,8.80
2022-11-23T05:43:46.636Z,8.70
2022-11-23T05:46:13.429Z,8.70
2022-11-23T05:48:40.202Z,8.80
2022-11-23T05:51:07.020Z,8.70
2022-11-23T05:53:34.106Z,8.70
2022-11-23T05:56:02.183Z,8.70
2022-11-23T05:58:29.311Z,8.70
2022-11-23T06:01:00.275Z,8.60
2022-11-23T06:03:27.480Z,8.60
2022-11-23T06:05:54.265Z,8.70
2022-11-23T06:08:20.953Z,8.60
2022-11-23T06:10:47.843Z,9.40
2022-11-23T06:13:14.583Z,8.60
2022-11-23T06:15:41.823Z,8.60
2022-11-23T06:18:09.552Z,8.60
2022-11-23T06:20:36.298Z,8.90
2022-11-23T06:23:03.095Z,8.70
2022-11-23T06:25:30.105Z,8.60
2022-11-23T06:27:58.734Z,8.50
2022-11-23T06:30:27.403Z,8.70
2022-11-23T06:32:54.143Z,8.60
2022-11-23T06:35:21.248Z,8.60
2022-11-23T06:37:49.623Z,8.50
2022-11-23T06:40:17.045Z,8.50
2022-11-23T06:42:43.825Z,8.50
2022-11-23T06:45:12.580Z,8.60
2022-11-23T06:47:39.433Z,8.50
2022-11-23T06:50:07.079Z,8.50
2022-11-23T06:52:33.797Z,8.50
2022-11-23T06:55:00.559Z,8.60
2022-11-23T06:57:27.367Z,8.60
2022-11-23T06:59:54.094Z,8.60
2022-11-23T07:02:20.878Z,8.60
2022-11-23T07:04:47.903Z,8.60
2022-11-23T07:07:14.767Z,8.60
2022-11-23T07:09:41.632Z,8.60
2022-11-23T07:12:08.461Z,8.60
2022-11-23T07:14:35.383Z,8.60
2022-11-23T07:17:02.411Z,8.70
2022-11-23T07:19:29.507Z,8.60
2022-11-23T07:21:56.477Z,8.70
2022-11-23T07:24:23.223Z,8.60
2022-11-23T07:26:51.011Z,8.50
2022-11-23T07:29:17.800Z,8.60
2022-11-23T07:31:44.770Z,8.60
2022-11-23T07:34:11.747Z,8.50
2022-11-23T07:36:38.769Z,8.50
2022-11-23T07:39:05.726Z,8.50
2022-11-23T07:41:32.744Z,8.50
2022-11-23T07:43:59.726Z,8.50
2022-11-23T07:46:26.861Z,8.50
2022-11-23T07:48:54.569Z,8.40
2022-11-23T07:51:21.504Z,8.60
2022-11-23T07:53:48.276Z,8.40
2022-11-23T07:56:14.987Z,8.40
2022-11-23T07:58:41.836Z,8.40
2022-11-23T08:01:08.724Z,8.50
2022-11-23T08:03:35.603Z,8.50
2022-11-23T08:06:02.763Z,8.40
2022-11-23T08:08:29.626Z,8.40
2022-11-23T08:10:56.721Z,8.50
2022-11-23T08:13:23.589Z,8.50
2022-11-23T08:15:55.701Z,8.50
2022-11-23T08:18:24.136Z,8.60
2022-11-23T08:20:50.945Z,8.60
2022-11-23T08:23:17.920Z,8.60
2022-11-23T08:25:44.690Z,8.70
2022-11-23T08:28:12.426Z,8.50
2022-11-23T08:30:39.537Z,8.50
2022-11-23T08:33:07.482Z,8.60
2022-11-23T08:35:39.349Z,8.70
2022-11-23T08:38:07.535Z,8.60
2022-11-23T08:40:34.806Z,8.70
2022-11-23T08:43:01.817Z,8.70
2022-11-23T08:45:28.958Z,8.80
2022-11-23T08:48:00.953Z,9.20
2022-11-23T08:50:29.288Z,8.90
2022-11-23T08:52:57.978Z,9.00
2022-11-23T08:55:26.913Z,9.00
2022-11-23T08:57:58.397Z,9.00
2022-11-23T09:00:26.722Z,9.00
2022-11-23T09:02:53.647Z,9.10
2022-11-23T09:05:20.649Z,9.10
2022-11-23T09:07:48.129Z,9.10
2022-11-23T09:10:18.839Z,9.10
2022-11-23T09:12:47.526Z,9.20
2022-11-23T09:15:14.618Z,10.00
2022-11-23T09:17:41.612Z,9.20
2022-11-23T09:20:10.094Z,9.30
2022-11-23T09:22:37.344Z,9.30
2022-11-23T09:25:06.866Z,9.30
2022-11-23T09:27:34.279Z,9.30
2022-11-23T09:30:01.097Z,9.30
2022-11-23T09:32:28.597Z,9.50
2022-11-23T09:34:56.218Z,9.50
2022-11-23T09:37:23.266Z,9.60
2022-11-23T09:39:50.083Z,9.40
2022-11-23T09:42:40.860Z,9.70
2022-11-23T09:45:30.522Z,9.70
2022-11-23T09:48:38.870Z,9.70
2022-11-23T09:51:13.437Z,9.80
2022-11-23T09:53:47.692Z,9.80
2022-11-23T09:56:19.531Z,9.90
2022-11-23T09:58:47.106Z,9.90
2022-11-23T10:01:17.267Z,10.00
2022-11-23T10:03:48.846Z,10.00
2022-11-23T10:06:27.814Z,10.10
2022-11-23T10:09:01.497Z,10.20
2022-11-23T10:12:02.749Z,10.30
2022-11-23T10:14:41.581Z,10.40
2022-11-23T10:17:32.010Z,10.40
2022-11-23T10:20:17.935Z,10.40
2022-11-23T10:22:58.999Z,10.50
2022-11-23T10:25:39.716Z,10.60
2022-11-23T10:28:14.944Z,10.60
2022-11-23T10:30:42.088Z,10.60
2022-11-23T10:33:29.124Z,10.70
2022-11-23T10:35:56.070Z,10.70
2022-11-23T10:38:27.154Z,11.20
2022-11-23T10:41:03.344Z,10.80
2022-11-23T10:43:43.483Z,10.80
2022-11-23T10:46:37.762Z,10.90
2022-11-23T10:49:16.441Z,10.90
2022-11-23T10:52:27.797Z,10.90
2022-11-23T10:54:56.481Z,11.00
2022-11-23T10:57:37.144Z,11.90
2022-11-23T11:00:14.750Z,11.50
2022-11-23T11:02:50.628Z,11.30
2022-11-23T11:06:01.149Z,11.50
2022-11-23T11:08:19.853Z,11.40
2022-11-23T11:10:52.189Z,11.40
2022-11-23T11:13:48.585Z,11.40
2022-11-23T11:16:36.730Z,11.40
2022-11-23T11:19:27.121Z,11.50
2022-11-23T11:21:54.003Z,11.50
2022-11-23T11:24:38.856Z,11.50
2022-11-23T11:27:14.369Z,11.60
2022-11-23T11:29:44.527Z,11.60
2022-11-23T11:32:20.005Z,11.70
2022-11-23T11:34:58.626Z,11.70
2022-11-23T11:37:38.715Z,11.70
2022-11-23T11:40:37.129Z,11.20
2022-11-23T11:43:23.046Z,11.70
2022-11-23T11:46:28.909Z,11.80
2022-11-23T11:49:18.215Z,11.80
2022-11-23T11:51:50.021Z,11.90
2022-11-23T11:54:37.170Z,11.90
2022-11-23T11:57:26.043Z,12.00
2022-11-23T12:00:02.439Z,12.00
2022-11-23T12:02:36.311Z,12.10
2022-11-23T12:05:15.318Z,12.10
2022-11-23T12:07:57.969Z,12.10
2022-11-23T12:10:29.905Z,12.10
2022-11-23T12:12:57.124Z,12.10
2022-11-23T12:15:55.678Z,12.10
2022-11-23T12:18:41.194Z,12.20
2022-11-23T12:21:24.277Z,12.10
2022-11-23T12:24:17.663Z,12.10
2022-11-23T12:26:56.389Z,12.20
2022-11-23T12:29:53.907Z,12.20
2022-11-23T12:32:51.741Z,12.20
2022-11-23T12:35:27.387Z,12.20
2022-11-23T12:38:05.850Z,11.40
2022-11-23T12:41:11.305Z,12.20
2022-11-23T12:44:09.553Z,12.20
2022-11-23T12:47:11.704Z,12.20
2022-11-23T12:49:52.040Z,12.20
2022-11-23T12:52:43.079Z,12.20
2022-11-23T12:55:29.182Z,12.20
2022-11-23T12:58:05.776Z,12.20
2022-11-23T13:00:41.967Z,12.20
2022-11-23T13:03:30.803Z,12.30
2022-11-23T13:06:31.377Z,12.30
2022-11-23T13:09:14.556Z,12.30
2022-11-23T13:12:02.641Z,12.30
2022-11-23T13:14:47.511Z,12.30
2022-11-23T13:17:32.508Z,12.30
2022-11-23T13:20:39.501Z,12.30
2022-11-23T13:23:07.076Z,12.40
2022-11-23T13:25:33.914Z,12.40
2022-11-23T13:28:03.958Z,12.40
2022-11-23T13:30:59.024Z,12.40
2022-11-23T13:33:30.469Z,12.40
2022-11-23T13:36:07.110Z,12.50
2022-11-23T13:38:39.781Z,12.60
2022-11-23T13:41:38.966Z,12.40
2022-11-23T13:44:21.397Z,12.50
2022-11-23T13:47:14.782Z,12.40
2022-11-23T13:49:45.836Z,12.40
2022-11-23T13:52:21.904Z,12.40
2022-11-23T13:55:10.931Z,12.50
2022-11-23T13:57:43.763Z,12.50
2022-11-23T14:00:48.413Z,12.40
2022-11-23T14:03:44.140Z,12.40
2022-11-23T14:06:22.628Z,12.40
2022-11-23T14:09:19.192Z,12.30
2022-11-23T14:11:57.202Z,12.40
2022-11-23T14:14:31.634Z,12.40
2022-11-23T14:17:29.463Z,12.40
2022-11-23T14:20:17.728Z,12.40
2022-11-23T14:23:02.494Z,12.40
2022-11-23T14:25:58.331Z,12.40
2022-11-23T14:28:49.858Z,12.40
2022-11-23T14:31:39.334Z,12.40
2022-11-23T14:34:29.321Z,12.30
2022-11-23T14:37:22.337Z,12.30
2022-11-23T14:40:05.645Z,12.40
2022-11-23T14:42:37.563Z,12.20
2022-11-23T14:45:06.656Z,12.20
2022-11-23T14:47:33.702Z,12.20
2022-11-23T14:50:00.621Z,12.10
2022-11-23T14:52:34.938Z,12.20
2022-11-23T14:55:05.765Z,12.50
2022-11-23T14:57:45.795Z,12.10
2022-11-23T15:00:43.511Z,12.10
2022-11-23T15:03:49.493Z,12.00
2022-11-23T15:06:13.220Z,12.00
2022-11-23T15:08:56.905Z,12.00
2022-11-23T15:11:28.967Z,12.00
2022-11-23T15:14:02.240Z,11.90
2022-11-23T15:16:30.076Z,11.90
2022-11-23T15:18:57.260Z,11.90
2022-11-23T15:21:27.836Z,11.90
2022-11-23T15:23:57.908Z,12.00
2022-11-23T15:26:47.329Z,11.90
2022-11-23T15:29:38.370Z,11.90
2022-11-23T15:32:30.407Z,11.80
2022-11-23T15:35:02.792Z,11.60
2022-11-23T15:37:30.596Z,11.60
2022-11-23T15:39:57.913Z,11.60
2022-11-23T15:42:26.510Z,11.60
2022-11-23T15:44:55.145Z,11.60
2022-11-23T15:47:40.250Z,11.50
2022-11-23T15:50:10.237Z,11.50
2022-11-23T15:52:38.247Z,11.40
2022-11-23T15:55:09.697Z,11.50
2022-11-23T15:57:38.199Z,11.20
2022-11-23T16:00:06.717Z,11.20
2022-11-23T16:02:33.575Z,11.00
2022-11-23T16:05:23.993Z,11.70
2022-11-23T16:07:59.702Z,10.90
2022-11-23T16:10:35.164Z,10.90
2022-11-23T16:13:04.659Z,10.90
2022-11-23T16:15:34.310Z,10.90
2022-11-23T16:18:02.276Z,10.80
2022-11-23T16:20:30.107Z,10.80
2022-11-23T16:23:00.114Z,10.80
2022-11-23T16:25:33.255Z,10.70
2022-11-23T16:28:06.328Z,10.70
2022-11-23T16:30:47.648Z,10.70
2022-11-23T16:33:17.110Z,10.60
2022-11-23T16:35:44.363Z,10.70
2022-11-23T16:38:12.678Z,10.70
2022-11-23T16:40:40.643Z,10.60
2022-11-23T16:43:07.836Z,10.60
2022-11-23T16:45:34.538Z,10.50
2022-11-23T16:48:03.355Z,10.50
2022-11-23T16:50:33.036Z,11.40
2022-11-23T16:53:13.017Z,10.60
2022-11-23T16:55:43.558Z,10.50
2022-11-23T16:58:15.378Z,10.50
2022-11-23T17:00:42.863Z,10.60
2022-11-23T17:03:20.846Z,12.10
2022-11-23T17:05:48.411Z,10.50
2022-11-23T17:08:21.661Z,10.50
2022-11-23T17:10:51.312Z,10.90
2022-11-23T17:13:28.649Z,10.50
2022-11-23T17:15:55.788Z,10.50
2022-11-23T17:18:22.721Z,10.50
2022-11-23T17:20:53.062Z,10.50
2022-11-23T17:23:19.816Z,10.50
2022-11-23T17:25:46.554Z,10.60
2022-11-23T17:28:21.367Z,11.30
2022-11-23T17:30:48.996Z,10.60
2022-11-23T17:33:16.062Z,10.70
2022-11-23T17:35:43.228Z,10.50
2022-11-23T17:38:16.952Z,10.50
2022-11-23T17:40:43.747Z,10.50
2022-11-23T17:43:14.717Z,10.50
2022-11-23T17:45:41.896Z,10.50
2022-11-23T17:48:12.722Z,10.50
2022-11-23T17:50:39.576Z,10.50
2022-11-23T17:53:06.647Z,10.60
2022-11-23T17:55:33.746Z,10.50
2022-11-23T17:58:00.526Z,10.50
2022-11-23T18:00:29.779Z,10.50
2022-11-23T18:02:56.613Z,10.50
2022-11-23T18:05:23.437Z,10.50
2022-11-23T18:07:53.399Z,10.40
2022-11-23T18:10:20.396Z,10.40
2022-11-23T18:12:47.680Z,10.40
2022-11-23T18:15:15.194Z,11.10
2022-11-23T18:17:42.266Z,10.30
2022-11-23T18:20:10.209Z,10.40
2022-11-23T18:22:37.530Z,10.40
2022-11-23T18:25:04.546Z,10.50
2022-11-23T18:27:31.281Z,10.60
2022-11-23T18:29:58.063Z,10.60
2022-11-23T18:32:24.866Z,10.60
2022-11-23T18:34:51.664Z,10.70
2022-11-23T18:37:18.434Z,10.90
2022-11-23T18:39:45.227Z,10.60
2022-11-23T18:42:12.048Z,10.50
2022-11-23T18:44:38.717Z,10.40
2022-11-23T18:47:05.603Z,10.40
2022-11-23T18:49:32.699Z,10.40
2022-11-23T18:51:59.672Z,10.30
2022-11-23T18:54:26.390Z,11.30
2022-11-23T18:56:53.068Z,10.80
2022-11-23T18:59:49.954Z,10.30
2022-11-23T19:02:09.423Z,10.30
2022-11-23T19:04:36.255Z,10.30
2022-11-23T19:07:02.925Z,10.20
2022-11-23T19:09:29.651Z,10.10
2022-11-23T19:11:56.782Z,10.10
2022-11-23T19:14:23.497Z,10.20
2022-11-23T19:16:50.199Z,10.20
2022-11-23T19:19:18.558Z,10.40
2022-11-23T19:21:45.439Z,10.30
2022-11-23T19:24:12.853Z,10.30
2022-11-23T19:26:39.589Z,10.30
2022-11-23T19:29:06.498Z,10.20
2022-11-23T19:31:33.738Z,10.20
2022-11-23T19:34:02.520Z,10.10
2022-11-23T19:36:30.896Z,10.10
2022-11-23T19:38:58.232Z,10.10
2022-11-23T19:41:29.761Z,10.20
2022-11-23T19:43:59.041Z,10.10
2022-11-23T19:46:26.532Z,10.10
2022-11-23T19:48:54.681Z,10.10
2022-11-23T19:51:21.569Z,10.20
2022-11-23T19:53:49.400Z,10.20
2022-11-23T19:56:19.218Z,10.40
2022-11-23T19:58:51.435Z,10.20
2022-11-23T20:01:20.741Z,10.30
2022-11-23T20:03:50.871Z,10.30
2022-11-23T20:06:26.969Z,10.30
2022-11-23T20:08:58.490Z,10.20
2022-11-23T20:11:26.392Z,10.20
2022-11-23T20:13:54.705Z,10.20
2022-11-23T20:16:22.798Z,10.40
2022-11-23T20:18:56.906Z,10.10
2022-11-23T20:21:23.673Z,10.00
2022-11-23T20:23:59.913Z,10.00
2022-11-23T20:26:30.325Z,10.00
2022-11-23T20:28:58.754Z,10.30
2022-11-23T20:31:28.440Z,10.10
2022-11-23T20:33:56.725Z,10.00
2022-11-23T20:36:25.612Z,10.10
2022-11-23T20:38:53.218Z,10.10
2022-11-23T20:41:32.328Z,10.10
2022-11-23T20:44:00.957Z,9.90
2022-11-23T20:46:59.897Z,9.90
2022-11-23T20:49:17.287Z,10.00
2022-11-23T20:51:44.006Z,9.90
2022-11-23T20:54:10.867Z,11.10
2022-11-23T20:56:40.698Z,10.00
2022-11-23T20:59:07.447Z,9.90
2022-11-23T21:01:34.644Z,10.00
2022-11-23T21:04:01.540Z,10.10
2022-11-23T21:06:28.676Z,10.00
2022-11-23T21:08:56.007Z,10.00
2022-11-23T21:11:43.896Z,10.00
2022-11-23T21:14:23.187Z,10.00
2022-11-23T21:16:55.996Z,10.00
2022-11-23T21:19:25.005Z,10.10
2022-11-23T21:21:52.406Z,10.10
2022-11-23T21:24:20.453Z,10.00
2022-11-23T21:26:47.655Z,10.00
2022-11-23T21:29:16.252Z,10.10
2022-11-23T21:31:45.998Z,10.00
2022-11-23T21:34:23.221Z,10.10
2022-11-23T21:36:50.585Z,10.00
2022-11-23T21:39:17.964Z,10.10
2022-11-23T21:41:45.343Z,10.60
2022-11-23T21:44:12.370Z,10.20
2022-11-23T21:46:41.040Z,10.30
2022-11-23T21:49:08.490Z,10.30
2022-11-23T21:51:37.163Z,10.30
2022-11-23T21:54:09.866Z,10.40
2022-11-23T21:56:36.693Z,10.40
2022-11-23T21:59:03.495Z,10.40
2022-11-23T22:01:35.455Z,10.40
2022-11-23T22:04:15.254Z,10.40
2022-11-23T22:06:44.472Z,10.50
2022-11-23T22:09:12.164Z,10.50
2022-11-23T22:11:41.187Z,10.50
2022-11-23T22:14:11.768Z,10.60
2022-11-23T22:16:41.624Z,10.60
2022-11-23T22:19:11.813Z,10.70
2022-11-23T22:21:39.701Z,10.70
2022-11-23T22:24:09.448Z,10.70
2022-11-23T22:26:36.400Z,10.70
2022-11-23T22:29:06.162Z,10.70
2022-11-23T22:31:34.377Z,10.90
2022-11-23T22:34:02.769Z,10.90
2022-11-23T22:36:29.977Z,10.90
2022-11-23T22:39:01.767Z,10.90
2022-11-23T22:41:30.398Z,10.90
2022-11-23T22:43:57.433Z,10.90
2022-11-23T22:46:25.288Z,10.90
2022-11-23T22:48:53.153Z,10.90
2022-11-23T22:51:22.749Z,11.00
2022-11-23T22:53:57.585Z,10.90
2022-11-23T22:56:25.689Z,10.90
2022-11-23T22:58:52.605Z,10.90
2022-11-23T23:01:24.967Z,11.90
2022-11-23T23:03:56.650Z,10.90
2022-11-23T23:06:25.763Z,10.90
2022-11-23T23:08:58.154Z,12.40
2022-11-23T23:11:27.109Z,10.90
2022-11-23T23:13:54.547Z,11.10
2022-11-23T23:16:21.490Z,11.00
2022-11-23T23:18:50.382Z,11.00
2022-11-23T23:21:20.547Z,11.00
2022-11-23T23:23:53.119Z,11.10
2022-11-23T23:26:23.378Z,11.00
2022-11-23T23:28:55.528Z,11.60
2022-11-23T23:31:22.608Z,11.10
2022-11-23T23:33:55.857Z,11.00
2022-11-23T23:36:24.437Z,11.10
2022-11-23T23:38:51.718Z,11.00
2022-11-23T23:41:18.931Z,11.00
2022-11-23T23:43:48.124Z,11.10
2022-11-23T23:46:15.095Z,11.10
2022-11-23T23:48:42.044Z,11.00
2022-11-23T23:51:14.347Z,11.10
2022-11-23T23:53:41.884Z,11.10
2022-11-23T23:56:19.869Z,11.40
2022-11-23T23:58:46.842Z,11.10
